Time;durP1;ratioP1;P1;durP2;ratioP2;P2;SDS_P1;SDS_P2;PMS_P1;PMS_P2;Temp;Humidity;BMP_temperature;BMP_pressure;BME280_temperature;BME280_humidity;BME280_pressure;Samples;Min_cycle;Max_cycle;Signal;HPM_P1;HPM_P2
2022/09/05 00:00:21;;;;;;;2.27;1.40;;;14.40;99.90;;;;;;5097004;27;20561;-76
2022/09/05 00:03:12;;;;;;;2.17;1.47;;;14.40;99.90;;;;;;5104864;28;20465;-76
2022/09/05 00:05:49;;;;;;;1.70;1.57;;;14.30;99.90;;;;;;5101654;27;21126;-77
2022/09/05 00:08:24;;;;;;;1.00;0.97;;;14.30;99.90;;;;;;5102383;27;20481;-77
2022/09/05 00:11:03;;;;;;;1.43;0.93;;;14.30;99.90;;;;;;5105060;27;20459;-76
2022/09/05 00:13:35;;;;;;;2.33;1.50;;;14.30;99.90;;;;;;5100803;27;20445;-76
2022/09/05 00:16:25;;;;;;;0.97;0.80;;;14.40;99.90;;;;;;5099484;28;20549;-76
2022/09/05 00:19:01;;;;;;;1.37;1.27;;;14.30;99.90;;;;;;5100795;28;21030;-77
2022/09/05 00:21:42;;;;;;;2.27;1.50;;;14.30;99.90;;;;;;5100563;27;20465;-76
2022/09/05 00:24:21;;;;;;;2.57;1.80;;;14.20;99.90;;;;;;5100830;28;20464;-76
2022/09/05 00:26:57;;;;;;;4.80;1.97;;;14.20;99.90;;;;;;5101864;28;20495;-77
2022/09/05 00:29:57;;;;;;;1.33;1.23;;;14.20;99.90;;;;;;5098029;27;20597;-78
2022/09/05 00:32:35;;;;;;;2.10;1.03;;;14.20;99.90;;;;;;5101687;27;20460;-77
2022/09/05 00:35:28;;;;;;;1.13;1.03;;;14.20;99.90;;;;;;5101690;27;20935;-77
2022/09/05 00:37:57;;;;;;;2.30;1.33;;;14.20;99.90;;;;;;5102661;27;20473;-76
2022/09/05 00:40:32;;;;;;;2.67;2.00;;;14.20;99.90;;;;;;5102442;27;20481;-78
2022/09/05 00:43:07;;;;;;;1.67;1.57;;;14.20;99.90;;;;;;5100862;28;20518;-76
2022/09/05 00:45:39;;;;;;;2.00;1.20;;;14.30;99.90;;;;;;5102010;28;20461;-78
2022/09/05 00:48:18;;;;;;;2.27;1.43;;;14.30;99.90;;;;;;5100221;28;20979;-77
2022/09/05 00:51:01;;;;;;;1.73;1.10;;;14.10;99.90;;;;;;5101592;27;20509;-78
2022/09/05 00:53:36;;;;;;;2.83;1.70;;;14.10;99.90;;;;;;5098053;28;20462;-76
2022/09/05 00:56:18;;;;;;;4.10;1.47;;;14.00;99.90;;;;;;5099979;28;20468;-76
2022/09/05 00:59:23;;;;;;;1.53;1.43;;;14.00;99.90;;;;;;5098482;28;20539;-77
2022/09/05 01:01:58;;;;;;;2.20;1.30;;;14.00;99.90;;;;;;5068185;28;20464;-78
2022/09/05 01:04:34;;;;;;;1.17;0.97;;;14.00;99.90;;;;;;5100373;28;21021;-80
2022/09/05 01:07:22;;;;;;;1.23;1.13;;;14.00;99.90;;;;;;5099952;28;20916;-77
2022/09/05 01:10:02;;;;;;;1.17;1.07;;;14.10;99.90;;;;;;5099436;28;20543;-79
2022/09/05 01:12:49;;;;;;;2.90;1.13;;;14.20;99.90;;;;;;5101611;28;20490;-77
2022/09/05 01:15:24;;;;;;;1.63;1.30;;;14.20;99.90;;;;;;5102951;28;20522;-79
2022/09/05 01:18:02;;;;;;;1.90;1.13;;;14.10;99.90;;;;;;5101782;28;20518;-77
2022/09/05 01:20:40;;;;;;;1.07;0.97;;;14.00;99.90;;;;;;5104866;28;20845;-78
2022/09/05 01:23:34;;;;;;;1.30;1.20;;;13.90;99.90;;;;;;5097660;28;20512;-78
2022/09/05 01:26:16;;;;;;;1.13;1.00;;;13.90;99.90;;;;;;5089939;27;20491;-77
2022/09/05 01:28:52;;;;;;;2.20;1.33;;;13.90;99.90;;;;;;5100520;28;20489;-77
2022/09/05 01:31:31;;;;;;;1.20;0.87;;;13.90;99.90;;;;;;5102662;28;20469;-77
2022/09/05 01:34:10;;;;;;;1.23;1.00;;;13.80;99.90;;;;;;5101195;28;20454;-77
2022/09/05 01:36:54;;;;;;;1.03;0.80;;;13.70;99.90;;;;;;5098063;28;20519;-77
2022/09/05 01:39:35;;;;;;;2.03;1.13;;;13.60;99.90;;;;;;5102153;28;20471;-80
2022/09/05 01:42:15;;;;;;;1.43;1.33;;;13.60;99.90;;;;;;5103589;28;20520;-80
2022/09/05 01:44:49;;;;;;;0.70;0.70;;;13.50;99.90;;;;;;5103618;27;20587;-77
2022/09/05 01:47:27;;;;;;;2.63;1.17;;;13.50;99.90;;;;;;5103515;28;20482;-78
2022/09/05 01:49:59;;;;;;;1.23;1.10;;;13.50;99.90;;;;;;5099423;27;20451;-77
2022/09/05 01:52:33;;;;;;;2.70;1.00;;;13.40;99.90;;;;;;5106813;27;21154;-77
2022/09/05 01:55:17;;;;;;;1.33;0.70;;;13.40;99.90;;;;;;5104200;27;20487;-81
2022/09/05 01:57:49;;;;;;;5.40;0.90;;;13.40;99.90;;;;;;5105012;28;20532;-79
2022/09/05 02:00:29;;;;;;;2.33;1.13;;;13.40;99.90;;;;;;5097099;27;20461;-78
2022/09/05 02:03:07;;;;;;;1.10;0.90;;;13.40;99.90;;;;;;5105514;28;21003;-77
2022/09/05 02:05:54;;;;;;;1.33;1.17;;;13.40;99.90;;;;;;5105202;28;20498;-81
2022/09/05 02:08:44;;;;;;;3.03;0.80;;;13.40;99.90;;;;;;5101380;27;20486;-76
2022/09/05 02:11:12;;;;;;;1.57;1.10;;;13.40;99.90;;;;;;5109304;27;20481;-78
2022/09/05 02:13:57;;;;;;;2.50;0.93;;;13.40;99.90;;;;;;5117791;27;20479;-77
2022/09/05 02:16:41;;;;;;;3.47;1.60;;;13.40;99.90;;;;;;5108606;27;20468;-77
2022/09/05 02:19:15;;;;;;;1.53;1.10;;;13.30;99.90;;;;;;5104150;28;22021;-78
2022/09/05 02:21:51;;;;;;;1.20;0.80;;;13.20;99.90;;;;;;5099852;27;21135;-78
2022/09/05 02:24:22;;;;;;;1.50;1.27;;;13.10;99.90;;;;;;5105257;27;20525;-77
2022/09/05 02:27:08;;;;;;;1.73;1.40;;;13.10;99.90;;;;;;5103816;27;20547;-77
2022/09/05 02:29:39;;;;;;;5.73;1.23;;;13.10;99.90;;;;;;5106234;28;20969;-77
2022/09/05 02:32:17;;;;;;;1.40;1.07;;;13.00;99.90;;;;;;5101355;27;20460;-77
2022/09/05 02:34:54;;;;;;;2.23;1.23;;;13.00;99.90;;;;;;5104471;27;20545;-78
2022/09/05 02:37:25;;;;;;;1.47;0.87;;;13.00;99.90;;;;;;5103285;27;20530;-78
2022/09/05 02:40:00;;;;;;;1.73;1.20;;;13.00;99.90;;;;;;5099956;27;20469;-77
2022/09/05 02:42:32;;;;;;;1.53;0.97;;;13.00;99.90;;;;;;5103513;27;20453;-80
2022/09/05 02:45:13;;;;;;;2.50;1.27;;;13.10;99.90;;;;;;5101568;27;20533;-78
2022/09/05 02:47:53;;;;;;;1.03;0.93;;;13.10;99.90;;;;;;5096201;28;21102;-78
2022/09/05 02:50:35;;;;;;;4.60;1.20;;;13.10;99.90;;;;;;5100806;27;20899;-77
2022/09/05 02:53:04;;;;;;;0.80;0.70;;;13.20;99.90;;;;;;5099749;28;20965;-77
2022/09/05 02:55:52;;;;;;;0.90;0.80;;;13.10;99.90;;;;;;5104991;27;20495;-77
2022/09/05 02:58:36;;;;;;;4.60;1.20;;;13.10;99.90;;;;;;5102021;27;20510;-78
2022/09/05 03:01:11;;;;;;;1.77;1.13;;;13.00;99.90;;;;;;5104256;27;20469;-78
2022/09/05 03:03:46;;;;;;;1.27;0.73;;;12.90;99.90;;;;;;5099575;27;20522;-78
2022/09/05 03:06:29;;;;;;;1.00;0.90;;;13.00;99.90;;;;;;5103016;28;20497;-78
2022/09/05 03:09:16;;;;;;;1.47;1.37;;;13.00;99.90;;;;;;5100280;28;20511;-78
2022/09/05 03:12:25;;;;;;;1.47;1.10;;;13.00;99.90;;;;;;5105208;27;20467;-78
2022/09/05 03:15:30;;;;;;;0.83;0.83;;;13.00;99.90;;;;;;5083651;27;20462;-79
2022/09/05 03:18:24;;;;;;;2.60;1.57;;;13.00;99.90;;;;;;5101873;27;20456;-78
2022/09/05 03:21:31;;;;;;;1.20;1.10;;;12.90;99.90;;;;;;5104658;28;20961;-81
2022/09/05 03:24:40;;;;;;;1.50;1.40;;;12.90;99.90;;;;;;5105395;27;20459;-77
2022/09/05 03:27:34;;;;;;;2.40;1.83;;;12.90;99.90;;;;;;5118157;27;20922;-77
2022/09/05 03:30:10;;;;;;;1.30;0.90;;;12.90;99.90;;;;;;5109069;27;20464;-77
2022/09/05 03:33:16;;;;;;;1.40;0.90;;;12.90;99.90;;;;;;5101092;27;20504;-80
2022/09/05 03:36:16;;;;;;;2.00;1.80;;;13.00;99.90;;;;;;5101487;28;20460;-78
2022/09/05 03:39:17;;;;;;;1.27;1.17;;;13.00;99.90;;;;;;5104965;27;20543;-77
2022/09/05 03:42:05;;;;;;;2.40;1.07;;;13.00;99.90;;;;;;5101419;27;20464;-77
2022/09/05 03:44:44;;;;;;;2.30;1.97;;;13.10;99.90;;;;;;5100689;28;20518;-78
2022/09/05 03:47:41;;;;;;;1.77;1.67;;;13.00;99.90;;;;;;5097265;28;20485;-78
2022/09/05 03:50:34;;;;;;;1.40;1.30;;;13.00;99.90;;;;;;5101327;27;20984;-78
2022/09/05 03:53:46;;;;;;;1.60;1.33;;;12.90;99.90;;;;;;5098424;27;20467;-80
2022/09/05 03:56:46;;;;;;;1.73;1.60;;;12.90;99.90;;;;;;5048226;28;20501;-78
2022/09/05 03:59:46;;;;;;;2.70;1.87;;;12.90;99.90;;;;;;5104681;28;20518;-78
2022/09/05 04:02:17;;;;;;;1.77;1.63;;;12.90;99.90;;;;;;5059671;28;21036;-78
2022/09/05 04:04:50;;;;;;;3.63;3.23;;;12.90;99.90;;;;;;5096755;27;20525;-78
2022/09/05 04:07:21;;;;;;;2.00;1.80;;;12.90;99.90;;;;;;5101454;28;20481;-78
2022/09/05 04:09:55;;;;;;;1.43;1.20;;;12.90;99.90;;;;;;5103166;27;20461;-79
2022/09/05 04:12:25;;;;;;;5.23;2.40;;;13.10;99.90;;;;;;5100487;27;20472;-78
2022/09/05 04:14:57;;;;;;;5.07;1.30;;;13.20;99.90;;;;;;5105477;27;20526;-81
2022/09/05 04:17:31;;;;;;;4.97;1.17;;;13.20;99.90;;;;;;5099553;28;20498;-78
2022/09/05 04:20:08;;;;;;;4.63;2.00;;;13.10;99.90;;;;;;5098711;28;20469;-78
2022/09/05 04:23:12;;;;;;;7.23;1.80;;;13.10;99.90;;;;;;5094498;28;20462;-78
2022/09/05 04:25:54;;;;;;;1.17;1.07;;;13.10;99.90;;;;;;5093633;28;20487;-76
2022/09/05 04:28:38;;;;;;;1.80;1.50;;;13.10;99.90;;;;;;5100693;27;20472;-78
2022/09/05 04:31:16;;;;;;;4.37;1.67;;;13.10;99.90;;;;;;5099882;27;20485;-78
2022/09/05 04:33:54;;;;;;;1.47;1.37;;;13.20;99.90;;;;;;5100946;27;20486;-78
2022/09/05 04:36:26;;;;;;;5.83;2.63;;;13.00;99.90;;;;;;5099770;28;20468;-78
2022/09/05 04:39:08;;;;;;;1.83;1.73;;;12.90;99.90;;;;;;5099550;27;20526;-77
2022/09/05 04:41:40;;;;;;;5.43;1.80;;;12.90;99.90;;;;;;5101712;28;20566;-81
2022/09/05 04:44:13;;;;;;;2.50;1.70;;;12.90;99.90;;;;;;5100775;27;20469;-80
2022/09/05 04:46:48;;;;;;;41.80;4.47;;;13.00;99.90;;;;;;5098807;28;20468;-78
2022/09/05 04:49:19;;;;;;;11.53;3.67;;;13.00;99.90;;;;;;5098675;28;20568;-78
2022/09/05 04:52:22;;;;;;;6.23;1.80;;;13.00;99.90;;;;;;5101136;28;20503;-79
2022/09/05 04:54:53;;;;;;;2.10;2.00;;;13.10;99.90;;;;;;5100718;28;20911;-78
2022/09/05 04:57:24;;;;;;;5.03;1.80;;;13.00;99.90;;;;;;5100247;28;20462;-78
2022/09/05 04:59:58;;;;;;;4.30;1.27;;;13.10;99.90;;;;;;5099733;28;20528;-78
2022/09/05 05:02:36;;;;;;;1.17;1.00;;;12.90;99.90;;;;;;5104139;27;20469;-81
2022/09/05 05:05:07;;;;;;;15.87;1.87;;;13.00;99.90;;;;;;5099770;28;20876;-80
2022/09/05 05:07:46;;;;;;;2.90;1.60;;;13.10;99.90;;;;;;5091450;28;21217;-80
2022/09/05 05:10:24;;;;;;;2.03;1.83;;;13.10;99.90;;;;;;5095355;28;20555;-78
2022/09/05 05:13:02;;;;;;;1.67;1.00;;;13.10;99.90;;;;;;5100816;28;20461;-79
2022/09/05 05:15:31;;;;;;;1.60;1.50;;;13.20;99.90;;;;;;5100355;28;20467;-77
2022/09/05 05:18:06;;;;;;;2.73;2.30;;;13.20;99.90;;;;;;5105103;27;20530;-79
2022/09/05 05:20:41;;;;;;;1.73;1.63;;;13.10;99.90;;;;;;5105661;28;20514;-79
2022/09/05 05:23:12;;;;;;;2.10;1.73;;;13.30;99.90;;;;;;5101355;27;20554;-77
2022/09/05 05:25:46;;;;;;;4.70;2.80;;;13.50;99.90;;;;;;5109796;27;20466;-81
2022/09/05 05:28:16;;;;;;;2.03;1.93;;;13.70;99.90;;;;;;5107776;27;20480;-78
2022/09/05 05:30:43;;;;;;;2.53;2.23;;;14.00;99.90;;;;;;5106289;27;20467;-81
2022/09/05 05:33:24;;;;;;;3.23;2.80;;;14.00;99.90;;;;;;5107726;27;20530;-78
2022/09/05 05:35:52;;;;;;;9.13;2.50;;;14.10;99.90;;;;;;5105486;27;20463;-78
2022/09/05 05:38:29;;;;;;;8.43;2.77;;;14.20;99.90;;;;;;5108054;27;20464;-81
2022/09/05 05:41:06;;;;;;;5.77;4.27;;;14.20;99.90;;;;;;5106866;27;20461;-81
2022/09/05 05:43:37;;;;;;;5.23;3.03;;;14.30;99.90;;;;;;5100842;27;21275;-78
2022/09/05 05:46:04;;;;;;;15.83;4.90;;;14.30;99.90;;;;;;5101379;27;20551;-80
2022/09/05 05:48:36;;;;;;;6.57;3.10;;;14.40;99.90;;;;;;5106522;27;21032;-79
2022/09/05 05:51:41;;;;;;;9.40;3.50;;;14.40;99.90;;;;;;5103724;27;20473;-77
2022/09/05 05:54:17;;;;;;;8.17;3.73;;;14.50;99.90;;;;;;5017850;28;20561;-77
2022/09/05 05:57:17;;;;;;;4.10;3.73;;;14.60;99.90;;;;;;5093700;27;20504;-79
2022/09/05 05:59:58;;;;;;;3.33;3.00;;;14.60;99.90;;;;;;5102606;27;20567;-80
2022/09/05 06:03:20;;;;;;;4.90;2.40;;;14.70;99.90;;;;;;5103116;27;21791;-77
2022/09/05 06:06:14;;;;;;;4.27;3.90;;;14.80;99.90;;;;;;5069974;27;20468;-78
2022/09/05 06:09:29;;;;;;;12.67;4.30;;;14.70;99.90;;;;;;5103053;27;20478;-80
2022/09/05 06:12:36;;;;;;;4.70;3.40;;;14.90;99.90;;;;;;5094465;28;21178;-78
2022/09/05 06:15:55;;;;;;;4.87;4.37;;;14.90;99.90;;;;;;5087468;27;20452;-78
2022/09/05 06:18:54;;;;;;;4.93;2.60;;;15.00;99.90;;;;;;5058881;28;20505;-78
2022/09/05 06:22:02;;;;;;;3.50;3.20;;;15.00;99.90;;;;;;5070671;28;20470;-78
2022/09/05 06:24:58;;;;;;;4.87;3.60;;;15.30;99.90;;;;;;5112800;28;20461;-77
2022/09/05 06:27:51;;;;;;;9.13;4.83;;;15.40;99.90;;;;;;5098681;27;20480;-77
2022/09/05 06:30:20;;;;;;;5.10;3.80;;;15.50;99.90;;;;;;5088919;27;20482;-77
2022/09/05 06:33:06;;;;;;;4.07;3.73;;;15.50;99.90;;;;;;5106225;27;20461;-79
2022/09/05 06:35:45;;;;;;;10.60;5.13;;;15.40;99.90;;;;;;5101757;27;20880;-79
2022/09/05 06:38:34;;;;;;;6.20;4.33;;;15.30;99.90;;;;;;5103278;27;20516;-78
2022/09/05 06:41:25;;;;;;;8.80;3.83;;;15.40;99.90;;;;;;5099933;28;20458;-77
2022/09/05 06:44:25;;;;;;;5.60;4.10;;;15.60;99.90;;;;;;5104198;27;20472;-78
2022/09/05 06:46:54;;;;;;;3.50;2.80;;;15.70;99.90;;;;;;5101627;27;20662;-79
2022/09/05 06:49:26;;;;;;;5.50;4.00;;;15.80;99.90;;;;;;5097707;28;20547;-78
2022/09/05 06:52:23;;;;;;;4.47;3.20;;;15.70;99.90;;;;;;5104416;27;20545;-77
2022/09/05 06:55:34;;;;;;;4.57;3.90;;;15.60;99.90;;;;;;5105456;27;20454;-78
2022/09/05 06:58:34;;;;;;;5.23;4.73;;;15.50;99.90;;;;;;5105372;27;20928;-77
2022/09/05 07:01:03;;;;;;;5.27;3.67;;;15.70;99.90;;;;;;5082983;27;21148;-77
2022/09/05 07:03:47;;;;;;;6.90;4.90;;;15.80;99.90;;;;;;5090337;27;20920;-78
2022/09/05 07:06:23;;;;;;;5.37;3.77;;;15.80;99.90;;;;;;5087610;27;20455;-78
2022/09/05 07:09:02;;;;;;;7.27;5.10;;;15.90;99.90;;;;;;5105368;27;20486;-81
2022/09/05 07:11:36;;;;;;;4.40;3.90;;;15.90;99.90;;;;;;5099289;27;21071;-78
2022/09/05 07:14:09;;;;;;;5.67;5.07;;;15.80;99.90;;;;;;5099375;27;20482;-78
2022/09/05 07:16:41;;;;;;;9.10;5.07;;;15.90;99.90;;;;;;5103279;27;21144;-81
2022/09/05 07:19:25;;;;;;;5.80;4.67;;;16.10;99.90;;;;;;5099383;27;20463;-80
2022/09/05 07:22:13;;;;;;;6.43;5.03;;;16.30;99.90;;;;;;5101545;27;20898;-78
2022/09/05 07:24:45;;;;;;;4.60;4.03;;;16.30;99.90;;;;;;5105437;27;20459;-78
2022/09/05 07:27:30;;;;;;;5.67;4.80;;;16.50;99.90;;;;;;5102168;28;20511;-78
2022/09/05 07:29:59;;;;;;;7.40;4.73;;;16.50;99.90;;;;;;5103830;27;21055;-78
2022/09/05 07:32:29;;;;;;;4.87;4.10;;;16.60;99.90;;;;;;5104821;27;20462;-83
2022/09/05 07:34:57;;;;;;;5.73;4.83;;;16.60;99.90;;;;;;5098676;27;20554;-88
2022/09/05 07:37:32;;;;;;;6.83;5.17;;;16.60;99.90;;;;;;5103589;27;20467;-88
2022/09/05 07:40:08;;;;;;;4.27;3.50;;;16.80;99.90;;;;;;5102016;27;20458;-88
2022/09/05 07:42:41;;;;;;;5.97;5.03;;;17.20;99.90;;;;;;5099953;27;20464;-77
2022/09/05 07:45:10;;;;;;;4.83;3.93;;;17.00;99.90;;;;;;5107199;27;20550;-78
2022/09/05 07:47:42;;;;;;;3.73;3.43;;;16.70;99.90;;;;;;5106645;27;20455;-76
2022/09/05 07:50:12;;;;;;;5.10;4.10;;;16.90;99.90;;;;;;5098801;28;20536;-78
2022/09/05 07:52:43;;;;;;;5.90;4.47;;;17.00;99.90;;;;;;5104745;27;20471;-79
2022/09/05 07:55:22;;;;;;;7.90;4.73;;;17.00;99.90;;;;;;5113536;27;20445;-78
2022/09/05 07:57:52;;;;;;;4.30;3.90;;;17.10;99.90;;;;;;5099577;27;20493;-79
2022/09/05 08:00:22;;;;;;;6.60;4.40;;;16.80;99.90;;;;;;5107944;27;20870;-78
2022/09/05 08:02:50;;;;;;;4.80;4.10;;;17.00;99.90;;;;;;5096829;27;21163;-78
2022/09/05 08:05:19;;;;;;;5.37;3.90;;;17.30;99.90;;;;;;5101153;27;20459;-78
2022/09/05 08:07:50;;;;;;;7.07;4.97;;;17.40;99.90;;;;;;5107263;27;20497;-80
2022/09/05 08:10:22;;;;;;;6.93;4.20;;;17.40;99.90;;;;;;5100430;27;20528;-78
2022/09/05 08:12:55;;;;;;;4.33;3.03;;;17.40;99.90;;;;;;5096921;27;20471;-77
2022/09/05 08:15:25;;;;;;;5.90;4.30;;;17.20;99.90;;;;;;5094597;28;20461;-77
2022/09/05 08:18:05;;;;;;;4.60;3.97;;;17.10;99.90;;;;;;5097040;27;21034;-82
2022/09/05 08:20:41;;;;;;;6.37;4.37;;;17.10;99.90;;;;;;5096386;27;20476;-78
2022/09/05 08:23:18;;;;;;;7.57;5.77;;;17.20;99.90;;;;;;5095997;27;20459;-81
2022/09/05 08:25:57;;;;;;;7.33;5.30;;;17.30;99.90;;;;;;5094269;27;20465;-78
2022/09/05 08:28:31;;;;;;;5.00;4.30;;;17.60;99.90;;;;;;5098319;27;20456;-78
2022/09/05 08:31:05;;;;;;;7.23;4.30;;;17.80;99.90;;;;;;5094210;27;20507;-78
2022/09/05 08:33:35;;;;;;;4.80;3.70;;;17.90;99.90;;;;;;5095672;28;20456;-78
2022/09/05 08:36:08;;;;;;;6.00;5.50;;;18.00;99.90;;;;;;5094599;27;20471;-78
2022/09/05 08:38:38;;;;;;;6.43;3.77;;;18.00;99.90;;;;;;5097488;27;20465;-77
2022/09/05 08:41:13;;;;;;;4.90;4.40;;;18.00;99.90;;;;;;5104030;27;20465;-78
2022/09/05 08:43:51;;;;;;;5.00;4.50;;;18.10;99.90;;;;;;5095269;28;20467;-80
2022/09/05 08:46:28;;;;;;;6.33;4.97;;;18.00;99.90;;;;;;5099099;27;21009;-80
2022/09/05 08:49:29;;;;;;;4.80;4.40;;;18.20;99.90;;;;;;5099143;28;20813;-78
2022/09/05 08:52:02;;;;;;;4.20;3.63;;;18.20;99.90;;;;;;5099211;27;20446;-80
2022/09/05 08:54:35;;;;;;;4.30;3.90;;;18.70;99.90;;;;;;5106168;27;20460;-78
2022/09/05 08:57:12;;;;;;;4.77;4.10;;;18.70;99.90;;;;;;5099614;28;21003;-78
2022/09/05 08:59:52;;;;;;;3.30;3.00;;;18.90;99.90;;;;;;5097222;28;20465;-78
2022/09/05 09:03:01;;;;;;;6.17;4.03;;;18.90;99.90;;;;;;5105310;28;20465;-81
2022/09/05 09:05:46;;;;;;;6.00;4.77;;;18.70;99.90;;;;;;5090464;28;20451;-78
2022/09/05 09:08:19;;;;;;;5.07;4.03;;;18.80;99.90;;;;;;5103612;27;20470;-78
2022/09/05 09:10:53;;;;;;;3.90;3.50;;;18.90;99.90;;;;;;5102285;28;20544;-78
2022/09/05 09:13:51;;;;;;;5.13;4.10;;;18.80;99.90;;;;;;5105545;28;20545;-78
2022/09/05 09:16:29;;;;;;;5.50;3.80;;;19.30;99.90;;;;;;5096708;28;20454;-76
2022/09/05 09:19:06;;;;;;;3.80;3.50;;;19.80;99.90;;;;;;5114333;28;21036;-78
2022/09/05 09:21:39;;;;;;;3.80;3.47;;;19.90;99.90;;;;;;5107358;28;20542;-81
2022/09/05 09:24:18;;;;;;;3.07;2.77;;;19.80;99.90;;;;;;5105272;28;20463;-79
2022/09/05 09:26:53;;;;;;;3.13;2.50;;;19.50;99.90;;;;;;5106604;28;20943;-80
2022/09/05 09:29:21;;;;;;;3.43;3.17;;;19.80;99.90;;;;;;5109846;28;20917;-80
2022/09/05 09:32:01;;;;;;;4.73;4.17;;;20.10;99.90;;;;;;5105853;28;20522;-79
2022/09/05 09:34:41;;;;;;;3.20;2.43;;;20.50;99.90;;;;;;5109604;28;20471;-79
2022/09/05 09:37:22;;;;;;;2.80;2.60;;;20.40;99.90;;;;;;5108093;28;20465;-80
2022/09/05 09:40:27;;;;;;;3.83;2.90;;;20.50;99.90;;;;;;5101737;28;20504;-78
2022/09/05 09:43:00;;;;;;;3.30;3.00;;;20.10;99.90;;;;;;5105108;28;20549;-78
2022/09/05 09:45:47;;;;;;;5.73;4.50;;;20.10;99.90;;;;;;5105058;28;20462;-82
2022/09/05 09:48:44;;;;;;;3.77;3.43;;;19.90;99.90;;;;;;5088421;28;20943;-79
2022/09/05 09:51:33;;;;;;;4.10;3.80;;;20.00;99.90;;;;;;5102595;28;20531;-78
2022/09/05 09:54:20;;;;;;;4.40;3.10;;;20.30;99.90;;;;;;5089493;28;20475;-77
2022/09/05 09:57:34;;;;;;;3.67;3.20;;;20.50;99.90;;;;;;5102136;28;21015;-78
2022/09/05 10:00:10;;;;;;;4.07;3.40;;;20.90;99.90;;;;;;5098547;28;20448;-79
2022/09/05 10:03:05;;;;;;;2.50;2.30;;;21.10;99.90;;;;;;5089672;28;20439;-78
2022/09/05 10:05:49;;;;;;;2.67;2.30;;;21.10;99.90;;;;;;5091541;27;20514;-80
2022/09/05 10:08:32;;;;;;;3.30;3.00;;;21.10;99.90;;;;;;5118548;27;20460;-78
2022/09/05 10:11:23;;;;;;;2.77;2.57;;;20.90;99.90;;;;;;5100374;27;20487;-78
2022/09/05 10:14:38;;;;;;;3.47;3.17;;;20.90;99.90;;;;;;5091843;27;20461;-78
2022/09/05 10:17:29;;;;;;;3.53;3.23;;;21.00;99.90;;;;;;5093991;27;20536;-78
2022/09/05 10:20:22;;;;;;;3.00;2.40;;;21.10;99.90;;;;;;5097594;27;20469;-79
2022/09/05 10:23:11;;;;;;;4.13;3.63;;;21.40;99.90;;;;;;5102942;27;20532;-78
2022/09/05 10:26:01;;;;;;;3.97;3.53;;;21.60;99.90;;;;;;5104481;27;20501;-78
2022/09/05 10:28:38;;;;;;;5.37;3.97;;;21.80;99.90;;;;;;5116118;27;20467;-77
2022/09/05 10:31:15;;;;;;;3.33;3.03;;;21.70;99.90;;;;;;5114055;27;20481;-77
2022/09/05 10:33:51;;;;;;;6.77;2.97;;;21.90;99.90;;;;;;5113187;27;20464;-81
2022/09/05 10:36:24;;;;;;;3.20;2.87;;;21.70;99.90;;;;;;5109739;27;20949;-78
2022/09/05 10:39:02;;;;;;;2.60;1.77;;;22.00;99.90;;;;;;5109711;27;20451;-78
2022/09/05 10:41:42;;;;;;;3.03;2.60;;;22.00;99.90;;;;;;5094942;27;20524;-80
2022/09/05 10:44:13;;;;;;;3.27;2.40;;;22.10;99.90;;;;;;5116690;27;20534;-78
2022/09/05 10:46:53;;;;;;;2.80;2.60;;;22.10;99.90;;;;;;5097433;27;20445;-78
2022/09/05 10:49:24;;;;;;;3.20;2.90;;;22.30;99.90;;;;;;5113375;27;20480;-80
2022/09/05 10:51:59;;;;;;;3.40;3.10;;;22.50;99.90;;;;;;5110005;27;20461;-80
2022/09/05 10:54:37;;;;;;;3.47;3.17;;;22.30;99.90;;;;;;5108141;27;20466;-79
2022/09/05 10:57:19;;;;;;;3.23;2.93;;;22.10;99.90;;;;;;5109964;27;20509;-79
2022/09/05 11:00:07;;;;;;;4.00;3.43;;;22.30;99.90;;;;;;5102966;27;20458;-78
2022/09/05 11:02:40;;;;;;;3.13;2.83;;;22.30;99.90;;;;;;5109888;27;20462;-79
2022/09/05 11:05:16;;;;;;;2.90;2.67;;;22.40;99.90;;;;;;5093149;28;20458;-79
2022/09/05 11:07:52;;;;;;;3.10;2.90;;;22.60;99.90;;;;;;5105203;27;20500;-79
2022/09/05 11:10:25;;;;;;;3.87;3.57;;;22.30;99.90;;;;;;5094847;27;21040;-81
2022/09/05 11:13:09;;;;;;;4.70;3.93;;;22.40;99.90;;;;;;5101270;27;20568;-80
2022/09/05 11:15:53;;;;;;;4.23;2.00;;;22.40;99.90;;;;;;5094767;27;20599;-79
2022/09/05 11:18:52;;;;;;;2.87;2.67;;;22.40;99.90;;;;;;5111852;27;20469;-80
2022/09/05 11:21:25;;;;;;;4.40;4.00;;;22.70;99.90;;;;;;5101337;27;21176;-82
2022/09/05 11:23:56;;;;;;;4.60;2.60;;;22.70;99.90;;;;;;5114584;27;20540;-80
2022/09/05 11:26:33;;;;;;;3.00;2.80;;;22.90;99.90;;;;;;5105085;27;20494;-80
2022/09/05 11:29:06;;;;;;;3.67;3.37;;;22.50;99.90;;;;;;5114510;27;20968;-81
2022/09/05 11:31:43;;;;;;;2.53;2.43;;;22.40;99.90;;;;;;5108949;27;20519;-80
2022/09/05 11:34:46;;;;;;;4.40;4.00;;;22.40;99.90;;;;;;5114406;27;20563;-82
2022/09/05 11:37:27;;;;;;;2.73;2.53;;;22.50;99.90;;;;;;5102076;27;20511;-83
2022/09/05 11:40:43;;;;;;;3.00;2.70;;;22.70;99.90;;;;;;5098985;27;20487;-79
2022/09/05 11:43:50;;;;;;;4.33;2.77;;;22.70;99.90;;;;;;5082445;27;20470;-80
2022/09/05 11:46:30;;;;;;;3.10;2.90;;;22.50;99.90;;;;;;5100794;27;20519;-80
2022/09/05 11:49:37;;;;;;;3.13;2.93;;;22.70;99.90;;;;;;5098662;27;20446;-81
2022/09/05 11:52:39;;;;;;;3.73;3.43;;;22.70;99.90;;;;;;5105169;27;20489;-80
2022/09/05 11:55:35;;;;;;;3.13;2.63;;;22.70;99.90;;;;;;5101390;27;20461;-83
2022/09/05 11:58:40;;;;;;;2.60;2.40;;;22.90;99.90;;;;;;5110058;27;20933;-80
2022/09/05 12:01:15;;;;;;;4.60;4.20;;;23.10;99.90;;;;;;5102757;27;20505;-81
2022/09/05 12:04:03;;;;;;;2.10;2.00;;;23.10;99.90;;;;;;5107488;27;20893;-80
2022/09/05 12:07:09;;;;;;;3.37;3.07;;;23.10;99.90;;;;;;5104866;27;20433;-80
2022/09/05 12:10:00;;;;;;;7.40;4.00;;;22.90;99.90;;;;;;5096622;28;20458;-80
2022/09/05 12:12:35;;;;;;;4.70;3.67;;;22.70;99.90;;;;;;5124913;27;20449;-83
2022/09/05 12:15:32;;;;;;;2.77;2.57;;;22.60;99.90;;;;;;5129336;27;20468;-81
2022/09/05 12:18:14;;;;;;;4.17;3.87;;;22.80;99.90;;;;;;5088933;27;20554;-81
2022/09/05 12:20:49;;;;;;;3.23;3.03;;;22.90;99.90;;;;;;5108906;27;20464;-81
2022/09/05 12:23:27;;;;;;;3.00;2.80;;;22.90;99.90;;;;;;5110578;27;20459;-80
2022/09/05 12:25:59;;;;;;;3.40;3.20;;;22.80;99.90;;;;;;5103248;28;20493;-81
2022/09/05 12:28:32;;;;;;;3.20;3.00;;;22.70;99.90;;;;;;5107058;27;20527;-84
2022/09/05 12:31:15;;;;;;;3.50;3.30;;;22.60;99.90;;;;;;5102750;28;20579;-81
2022/09/05 12:33:47;;;;;;;4.70;4.00;;;22.50;99.90;;;;;;5101403;27;20459;-81
2022/09/05 12:36:19;;;;;;;3.60;3.30;;;22.80;99.90;;;;;;5105804;27;20527;-82
2022/09/05 12:38:52;;;;;;;3.50;3.20;;;22.80;99.90;;;;;;5102691;28;20457;-84
2022/09/05 12:41:20;;;;;;;3.93;3.67;;;23.10;99.90;;;;;;5105398;27;21018;-83
2022/09/05 12:44:15;;;;;;;3.30;2.97;;;23.30;99.90;;;;;;5104618;27;20490;-80
2022/09/05 12:46:54;;;;;;;3.37;3.00;;;23.30;99.90;;;;;;5101627;27;20463;-81
2022/09/05 12:49:31;;;;;;;5.00;3.97;;;23.50;99.90;;;;;;5104836;28;20454;-80
2022/09/05 12:52:03;;;;;;;3.60;3.40;;;23.70;99.90;;;;;;5104603;28;20859;-81
2022/09/05 12:54:34;;;;;;;3.83;3.63;;;23.90;99.90;;;;;;5107596;27;20552;-80
2022/09/05 12:57:06;;;;;;;3.30;3.10;;;23.70;99.90;;;;;;5101749;28;20843;-81
2022/09/05 12:59:36;;;;;;;3.40;3.10;;;24.00;99.90;;;;;;5093269;28;20590;-82
2022/09/05 13:02:14;;;;;;;4.20;3.80;;;23.90;99.90;;;;;;5100671;28;20526;-81
2022/09/05 13:04:46;;;;;;;4.30;4.00;;;24.10;99.90;;;;;;5103249;27;20973;-79
2022/09/05 13:07:19;;;;;;;3.60;3.30;;;23.90;99.90;;;;;;5102876;28;20824;-80
2022/09/05 13:09:56;;;;;;;4.03;3.63;;;23.70;99.90;;;;;;5107874;27;21000;-80
2022/09/05 13:12:29;;;;;;;5.77;4.27;;;23.80;99.90;;;;;;5101727;28;20551;-81
2022/09/05 13:15:04;;;;;;;4.20;3.80;;;23.70;99.90;;;;;;5104296;28;20447;-80
2022/09/05 13:17:38;;;;;;;4.87;4.47;;;23.90;99.90;;;;;;5103320;28;21425;-80
2022/09/05 13:20:16;;;;;;;6.90;4.13;;;24.00;99.90;;;;;;5105864;28;20529;-79
2022/09/05 13:22:45;;;;;;;4.50;3.87;;;23.90;99.90;;;;;;5103773;27;20483;-83
2022/09/05 13:25:17;;;;;;;3.93;3.63;;;24.00;99.90;;;;;;5102907;28;20442;-81
2022/09/05 13:27:55;;;;;;;4.77;4.30;;;23.90;99.90;;;;;;5105440;28;20892;-80
2022/09/05 13:30:24;;;;;;;3.77;3.57;;;23.90;99.90;;;;;;5100288;28;20842;-83
2022/09/05 13:32:55;;;;;;;4.30;3.97;;;23.90;99.90;;;;;;5103880;28;20882;-82
2022/09/05 13:35:26;;;;;;;3.13;2.93;;;23.90;99.90;;;;;;5105129;28;21036;-80
2022/09/05 13:38:03;;;;;;;3.60;3.40;;;24.30;99.90;;;;;;5103106;28;20548;-81
2022/09/05 13:40:37;;;;;;;4.17;3.87;;;24.20;99.90;;;;;;5107316;27;20452;-82
2022/09/05 13:43:10;;;;;;;4.03;3.73;;;24.50;99.90;;;;;;5107439;27;20554;-81
2022/09/05 13:45:55;;;;;;;4.90;4.53;;;24.50;99.90;;;;;;5108800;27;21049;-80
2022/09/05 13:48:36;;;;;;;4.50;3.97;;;24.30;99.90;;;;;;5107601;27;20457;-80
2022/09/05 13:51:26;;;;;;;4.20;3.90;;;24.50;99.90;;;;;;5106376;27;21019;-81
2022/09/05 13:54:17;;;;;;;3.77;3.37;;;24.30;99.90;;;;;;5102130;27;20541;-81
2022/09/05 13:56:52;;;;;;;7.23;3.70;;;24.20;99.90;;;;;;5092935;27;20537;-81